Bookmark and Share
Track history (hours):
 

Gao Qiang

Last reported at 2014-Apr-13 17:11 UTC. Time now 2014-Apr-17 18:33 UTC.
Position N 35°57' W 005°48'.

Length 186 m; draft 9 m.

Type: Cargo ship. MMSI: 477611000.

NotesDate/timePositionNaut miles runAvg speedWind from/ knotsBaromVisibWave heightAir tempDewpointWater temp
2014-Apr-13 17:11N 35°57' W 005°48'711.1
2014-Apr-13 16:31N 35°57' W 005°39'1111.4
2014-Apr-13 15:33N 35°60' W 005°26'1111.4
2014-Apr-13 14:34N 36°03' W 005°12'40912.7
2014-Apr-12 06:19N 37°10' E 003°10'11012.6
2014-Apr-11 21:33N 37°20' E 005°28'1312.0
2014-Apr-11 20:26N 37°20' E 005°45'1213.1
2014-Apr-11 19:32N 37°20' E 005°60'2713.2
2014-Apr-11 17:28N 37°20' E 006°34'1212.9
2014-Apr-11 16:33N 37°20' E 006°49'1211.9
2014-Apr-11 15:33N 37°20' E 007°04'2412.2
2014-Apr-11 13:33N 37°20' E 007°35'1312.1
2014-Apr-11 12:27N 37°20' E 007°51'1112.0
2014-Apr-11 11:31N 37°20' E 008°05'1211.9
2014-Apr-11 10:33N 37°20' E 008°20'8912.5
2014-Apr-11 03:27N 37°39' E 010°09'1112.5
2014-Apr-11 02:34N 37°38' E 010°23'1212.4
2014-Apr-11 01:34N 37°35' E 010°38'1212.4
2014-Apr-11 00:34N 37°32' E 010°54'1312.8
2014-Apr-10 23:34N 37°28' E 011°09'1313.2
2014-Apr-10 22:34N 37°22' E 011°23'1313.1
2014-Apr-10 21:34N 37°15' E 011°38'1513.1
2014-Apr-10 20:27N 37°08' E 011°54'1312.6
2014-Apr-10 19:27N 37°03' E 012°08'13912.7
2014-Apr-10 08:33N 36°28' E 014°55'1713.1
2014-Apr-10 07:16N 36°27' E 015°16'38612.6
2014-Apr-09 00:29N 36°29' E 023°17'2813.2
2014-Apr-08 22:23N 36°52' E 023°35'1112.9
2014-Apr-08 21:32N 37°01' E 023°42'2613.0
2014-Apr-08 19:31N 37°23' E 024°00'1313.2
2014-Apr-08 18:33N 37°34' E 024°09'1513.3
2014-Apr-08 17:27N 37°45' E 024°21'1313.9
2014-Apr-08 16:31N 37°54' E 024°33'  
2014-Apr-06 04:24N 43°40' E 035°19'1112.9
2014-Apr-06 03:33N 43°45' E 035°32'1712.8
2014-Apr-06 02:11N 43°53' E 035°54'  

Dump ship's entire track history

sailing weather and tide predictions

Gao Qiang — VRVQ8 — position and weather